sensor_id;sensor_type;location;lat;lon;timestamp;P1;durP1;ratioP1;P2;durP2;ratioP2
8478;SDS011;4276;49.354;6.804;2024-01-30T00:00:33;7.72;;;7.00;;
8478;SDS011;4276;49.354;6.804;2024-01-30T00:02:59;7.63;;;6.70;;
8478;SDS011;4276;49.354;6.804;2024-01-30T00:05:26;7.75;;;7.05;;
8478;SDS011;4276;49.354;6.804;2024-01-30T00:07:52;7.28;;;6.68;;
8478;SDS011;4276;49.354;6.804;2024-01-30T00:10:19;7.10;;;6.50;;
8478;SDS011;4276;49.354;6.804;2024-01-30T00:12:46;7.30;;;6.70;;
8478;SDS011;4276;49.354;6.804;2024-01-30T00:15:12;7.00;;;6.40;;
8478;SDS011;4276;49.354;6.804;2024-01-30T00:17:39;7.18;;;6.57;;
8478;SDS011;4276;49.354;6.804;2024-01-30T00:20:05;6.78;;;6.28;;
8478;SDS011;4276;49.354;6.804;2024-01-30T00:22:33;7.28;;;6.57;;
8478;SDS011;4276;49.354;6.804;2024-01-30T00:25:00;6.97;;;6.38;;
8478;SDS011;4276;49.354;6.804;2024-01-30T00:27:26;8.80;;;7.93;;
8478;SDS011;4276;49.354;6.804;2024-01-30T00:29:54;9.30;;;8.35;;
8478;SDS011;4276;49.354;6.804;2024-01-30T00:32:20;8.52;;;7.72;;
8478;SDS011;4276;49.354;6.804;2024-01-30T00:34:47;8.82;;;8.07;;
8478;SDS011;4276;49.354;6.804;2024-01-30T00:37:14;8.00;;;7.25;;
8478;SDS011;4276;49.354;6.804;2024-01-30T00:39:41;9.93;;;8.95;;
8478;SDS011;4276;49.354;6.804;2024-01-30T00:42:07;9.85;;;8.93;;
8478;SDS011;4276;49.354;6.804;2024-01-30T00:44:35;8.07;;;7.38;;
8478;SDS011;4276;49.354;6.804;2024-01-30T00:47:03;9.00;;;8.20;;
8478;SDS011;4276;49.354;6.804;2024-01-30T00:49:30;8.25;;;7.47;;
8478;SDS011;4276;49.354;6.804;2024-01-30T00:51:57;7.95;;;7.32;;
8478;SDS011;4276;49.354;6.804;2024-01-30T00:54:23;7.93;;;7.20;;
8478;SDS011;4276;49.354;6.804;2024-01-30T00:56:50;8.73;;;7.82;;
8478;SDS011;4276;49.354;6.804;2024-01-30T00:59:17;7.72;;;7.03;;
8478;SDS011;4276;49.354;6.804;2024-01-30T01:01:43;7.03;;;6.43;;
8478;SDS011;4276;49.354;6.804;2024-01-30T01:04:10;7.85;;;7.15;;
8478;SDS011;4276;49.354;6.804;2024-01-30T01:06:37;7.85;;;7.15;;
8478;SDS011;4276;49.354;6.804;2024-01-30T01:09:03;7.88;;;7.18;;
8478;SDS011;4276;49.354;6.804;2024-01-30T01:11:30;7.85;;;7.15;;
8478;SDS011;4276;49.354;6.804;2024-01-30T01:13:57;7.07;;;6.47;;
8478;SDS011;4276;49.354;6.804;2024-01-30T01:16:24;6.78;;;6.28;;
8478;SDS011;4276;49.354;6.804;2024-01-30T01:18:51;6.90;;;6.35;;
8478;SDS011;4276;49.354;6.804;2024-01-30T01:21:17;8.88;;;7.50;;
8478;SDS011;4276;49.354;6.804;2024-01-30T01:23:44;7.38;;;6.68;;
8478;SDS011;4276;49.354;6.804;2024-01-30T01:26:10;7.13;;;6.53;;
8478;SDS011;4276;49.354;6.804;2024-01-30T01:28:38;7.07;;;6.47;;
8478;SDS011;4276;49.354;6.804;2024-01-30T01:31:06;6.63;;;5.97;;
8478;SDS011;4276;49.354;6.804;2024-01-30T01:33:33;7.07;;;6.47;;
8478;SDS011;4276;49.354;6.804;2024-01-30T01:36:00;7.03;;;6.43;;
8478;SDS011;4276;49.354;6.804;2024-01-30T01:38:28;6.90;;;6.30;;
8478;SDS011;4276;49.354;6.804;2024-01-30T01:40:55;7.55;;;6.85;;
8478;SDS011;4276;49.354;6.804;2024-01-30T01:43:22;7.50;;;6.80;;
8478;SDS011;4276;49.354;6.804;2024-01-30T01:45:48;6.85;;;6.25;;
8478;SDS011;4276;49.354;6.804;2024-01-30T01:48:17;7.03;;;6.32;;
8478;SDS011;4276;49.354;6.804;2024-01-30T01:50:44;6.75;;;6.25;;
8478;SDS011;4276;49.354;6.804;2024-01-30T01:53:10;7.35;;;6.75;;
8478;SDS011;4276;49.354;6.804;2024-01-30T01:55:38;8.13;;;7.32;;
8478;SDS011;4276;49.354;6.804;2024-01-30T01:58:05;6.55;;;5.95;;
8478;SDS011;4276;49.354;6.804;2024-01-30T02:00:32;7.07;;;6.35;;
8478;SDS011;4276;49.354;6.804;2024-01-30T02:02:58;6.65;;;6.10;;
8478;SDS011;4276;49.354;6.804;2024-01-30T02:05:26;6.32;;;5.82;;
8478;SDS011;4276;49.354;6.804;2024-01-30T02:07:52;7.07;;;6.43;;
8478;SDS011;4276;49.354;6.804;2024-01-30T02:10:19;7.28;;;6.57;;
8478;SDS011;4276;49.354;6.804;2024-01-30T02:12:46;6.60;;;6.00;;
8478;SDS011;4276;49.354;6.804;2024-01-30T02:15:13;6.95;;;6.35;;
8478;SDS011;4276;49.354;6.804;2024-01-30T02:17:40;8.07;;;6.38;;
8478;SDS011;4276;49.354;6.804;2024-01-30T02:20:07;7.18;;;6.25;;
8478;SDS011;4276;49.354;6.804;2024-01-30T02:22:35;7.25;;;6.43;;
8478;SDS011;4276;49.354;6.804;2024-01-30T02:25:02;6.93;;;6.10;;
8478;SDS011;4276;49.354;6.804;2024-01-30T02:27:29;6.75;;;6.18;;
8478;SDS011;4276;49.354;6.804;2024-01-30T02:29:56;7.18;;;6.50;;
8478;SDS011;4276;49.354;6.804;2024-01-30T02:32:22;6.80;;;6.30;;
8478;SDS011;4276;49.354;6.804;2024-01-30T02:34:49;6.55;;;6.05;;
8478;SDS011;4276;49.354;6.804;2024-01-30T02:37:16;6.60;;;6.05;;
8478;SDS011;4276;49.354;6.804;2024-01-30T02:39:43;7.05;;;6.28;;
8478;SDS011;4276;49.354;6.804;2024-01-30T02:42:09;7.05;;;6.53;;
8478;SDS011;4276;49.354;6.804;2024-01-30T02:44:36;7.28;;;6.68;;
8478;SDS011;4276;49.354;6.804;2024-01-30T02:47:03;6.60;;;6.10;;
8478;SDS011;4276;49.354;6.804;2024-01-30T02:49:29;7.45;;;6.75;;
8478;SDS011;4276;49.354;6.804;2024-01-30T02:51:56;6.43;;;5.82;;
8478;SDS011;4276;49.354;6.804;2024-01-30T02:54:23;6.38;;;5.88;;
8478;SDS011;4276;49.354;6.804;2024-01-30T02:56:50;6.57;;;6.07;;
8478;SDS011;4276;49.354;6.804;2024-01-30T02:59:17;7.35;;;6.60;;
8478;SDS011;4276;49.354;6.804;2024-01-30T03:01:44;7.13;;;6.43;;
8478;SDS011;4276;49.354;6.804;2024-01-30T03:04:11;6.57;;;6.07;;
8478;SDS011;4276;49.354;6.804;2024-01-30T03:06:38;6.60;;;6.00;;
8478;SDS011;4276;49.354;6.804;2024-01-30T03:09:05;7.18;;;6.57;;
8478;SDS011;4276;49.354;6.804;2024-01-30T03:11:31;7.18;;;6.60;;
8478;SDS011;4276;49.354;6.804;2024-01-30T03:13:58;7.60;;;6.78;;
8478;SDS011;4276;49.354;6.804;2024-01-30T03:16:24;7.75;;;7.05;;
8478;SDS011;4276;49.354;6.804;2024-01-30T03:18:51;7.38;;;6.68;;
8478;SDS011;4276;49.354;6.804;2024-01-30T03:21:17;7.82;;;7.07;;
8478;SDS011;4276;49.354;6.804;2024-01-30T03:23:44;7.93;;;7.22;;
8478;SDS011;4276;49.354;6.804;2024-01-30T03:26:10;6.95;;;6.30;;
8478;SDS011;4276;49.354;6.804;2024-01-30T03:28:39;7.70;;;7.00;;
8478;SDS011;4276;49.354;6.804;2024-01-30T03:31:05;7.18;;;6.57;;
8478;SDS011;4276;49.354;6.804;2024-01-30T03:33:32;7.30;;;6.68;;
8478;SDS011;4276;49.354;6.804;2024-01-30T03:36:02;7.47;;;6.78;;
8478;SDS011;4276;49.354;6.804;2024-01-30T03:38:29;7.90;;;7.20;;
8478;SDS011;4276;49.354;6.804;2024-01-30T03:40:58;7.90;;;7.20;;
8478;SDS011;4276;49.354;6.804;2024-01-30T03:43:25;7.70;;;7.10;;
8478;SDS011;4276;49.354;6.804;2024-01-30T03:45:52;7.88;;;7.05;;
8478;SDS011;4276;49.354;6.804;2024-01-30T03:48:18;7.03;;;6.53;;
8478;SDS011;4276;49.354;6.804;2024-01-30T03:50:46;7.18;;;6.47;;
8478;SDS011;4276;49.354;6.804;2024-01-30T03:53:12;7.30;;;6.38;;
8478;SDS011;4276;49.354;6.804;2024-01-30T03:55:39;7.72;;;7.05;;
8478;SDS011;4276;49.354;6.804;2024-01-30T03:58:05;7.18;;;6.57;;
8478;SDS011;4276;49.354;6.804;2024-01-30T04:00:32;7.63;;;6.93;;
8478;SDS011;4276;49.354;6.804;2024-01-30T04:02:58;7.97;;;7.18;;
8478;SDS011;4276;49.354;6.804;2024-01-30T04:05:25;7.95;;;7.13;;
8478;SDS011;4276;49.354;6.804;2024-01-30T04:07:51;7.80;;;7.00;;
8478;SDS011;4276;49.354;6.804;2024-01-30T04:10:18;7.53;;;6.82;;
8478;SDS011;4276;49.354;6.804;2024-01-30T04:12:45;7.37;;;6.77;;
8478;SDS011;4276;49.354;6.804;2024-01-30T04:15:12;7.97;;;7.20;;
8478;SDS011;4276;49.354;6.804;2024-01-30T04:17:39;7.30;;;6.60;;
8478;SDS011;4276;49.354;6.804;2024-01-30T04:20:06;7.90;;;7.05;;
8478;SDS011;4276;49.354;6.804;2024-01-30T04:22:33;9.40;;;7.75;;
8478;SDS011;4276;49.354;6.804;2024-01-30T04:24:59;8.07;;;7.28;;
8478;SDS011;4276;49.354;6.804;2024-01-30T04:27:26;7.00;;;6.38;;
8478;SDS011;4276;49.354;6.804;2024-01-30T04:29:52;7.70;;;7.00;;
8478;SDS011;4276;49.354;6.804;2024-01-30T04:32:19;9.65;;;8.75;;
8478;SDS011;4276;49.354;6.804;2024-01-30T04:34:45;8.27;;;7.55;;
8478;SDS011;4276;49.354;6.804;2024-01-30T04:37:12;7.97;;;7.38;;
8478;SDS011;4276;49.354;6.804;2024-01-30T04:39:39;7.80;;;7.10;;
8478;SDS011;4276;49.354;6.804;2024-01-30T04:42:05;10.13;;;9.13;;
8478;SDS011;4276;49.354;6.804;2024-01-30T04:44:34;9.70;;;8.77;;
8478;SDS011;4276;49.354;6.804;2024-01-30T04:47:01;11.98;;;10.77;;
8478;SDS011;4276;49.354;6.804;2024-01-30T04:49:28;11.70;;;10.60;;
8478;SDS011;4276;49.354;6.804;2024-01-30T04:51:55;12.52;;;11.23;;
8478;SDS011;4276;49.354;6.804;2024-01-30T04:54:23;10.80;;;9.75;;
8478;SDS011;4276;49.354;6.804;2024-01-30T04:56:49;12.15;;;10.93;;
8478;SDS011;4276;49.354;6.804;2024-01-30T04:59:16;11.82;;;10.63;;
8478;SDS011;4276;49.354;6.804;2024-01-30T05:01:42;11.17;;;10.23;;
8478;SDS011;4276;49.354;6.804;2024-01-30T05:04:09;10.73;;;9.67;;
8478;SDS011;4276;49.354;6.804;2024-01-30T05:06:42;9.40;;;8.50;;
8478;SDS011;4276;49.354;6.804;2024-01-30T05:09:10;9.75;;;8.85;;
8478;SDS011;4276;49.354;6.804;2024-01-30T05:11:37;9.00;;;8.10;;
8478;SDS011;4276;49.354;6.804;2024-01-30T05:14:06;9.32;;;8.43;;
8478;SDS011;4276;49.354;6.804;2024-01-30T05:16:34;9.93;;;9.02;;
8478;SDS011;4276;49.354;6.804;2024-01-30T05:19:01;10.45;;;9.40;;
8478;SDS011;4276;49.354;6.804;2024-01-30T05:21:29;10.50;;;9.43;;
8478;SDS011;4276;49.354;6.804;2024-01-30T05:23:55;10.52;;;9.52;;
8478;SDS011;4276;49.354;6.804;2024-01-30T05:26:22;10.57;;;9.50;;
8478;SDS011;4276;49.354;6.804;2024-01-30T05:28:49;11.75;;;10.65;;
8478;SDS011;4276;49.354;6.804;2024-01-30T05:31:16;13.00;;;11.80;;
8478;SDS011;4276;49.354;6.804;2024-01-30T05:33:42;13.70;;;12.48;;
8478;SDS011;4276;49.354;6.804;2024-01-30T05:36:11;15.52;;;14.00;;
8478;SDS011;4276;49.354;6.804;2024-01-30T05:38:39;14.30;;;12.80;;
8478;SDS011;4276;49.354;6.804;2024-01-30T05:41:05;12.17;;;10.97;;
8478;SDS011;4276;49.354;6.804;2024-01-30T05:43:32;12.48;;;11.27;;
8478;SDS011;4276;49.354;6.804;2024-01-30T05:45:58;11.87;;;10.67;;
8478;SDS011;4276;49.354;6.804;2024-01-30T05:48:25;11.48;;;10.30;;
8478;SDS011;4276;49.354;6.804;2024-01-30T05:50:51;11.82;;;10.70;;
8478;SDS011;4276;49.354;6.804;2024-01-30T05:53:18;10.60;;;9.68;;
8478;SDS011;4276;49.354;6.804;2024-01-30T05:55:45;12.00;;;10.80;;
8478;SDS011;4276;49.354;6.804;2024-01-30T05:58:12;12.20;;;10.90;;
8478;SDS011;4276;49.354;6.804;2024-01-30T06:00:38;10.50;;;9.27;;
8478;SDS011;4276;49.354;6.804;2024-01-30T06:03:05;10.67;;;9.70;;
8478;SDS011;4276;49.354;6.804;2024-01-30T06:05:31;10.75;;;9.75;;
8478;SDS011;4276;49.354;6.804;2024-01-30T06:07:58;11.13;;;9.30;;
8478;SDS011;4276;49.354;6.804;2024-01-30T06:10:25;10.40;;;9.40;;
8478;SDS011;4276;49.354;6.804;2024-01-30T06:12:51;10.43;;;8.73;;
8478;SDS011;4276;49.354;6.804;2024-01-30T06:15:19;10.38;;;9.38;;
8478;SDS011;4276;49.354;6.804;2024-01-30T06:17:45;10.25;;;9.25;;
8478;SDS011;4276;49.354;6.804;2024-01-30T06:20:12;11.02;;;10.00;;
8478;SDS011;4276;49.354;6.804;2024-01-30T06:22:38;9.95;;;8.65;;
8478;SDS011;4276;49.354;6.804;2024-01-30T06:25:05;10.52;;;9.48;;
8478;SDS011;4276;49.354;6.804;2024-01-30T06:27:32;10.25;;;9.10;;
8478;SDS011;4276;49.354;6.804;2024-01-30T06:29:58;10.45;;;8.82;;
8478;SDS011;4276;49.354;6.804;2024-01-30T06:32:25;10.25;;;9.25;;
8478;SDS011;4276;49.354;6.804;2024-01-30T06:34:54;10.02;;;9.07;;
8478;SDS011;4276;49.354;6.804;2024-01-30T06:37:20;9.93;;;9.02;;
8478;SDS011;4276;49.354;6.804;2024-01-30T06:39:48;9.67;;;8.77;;
8478;SDS011;4276;49.354;6.804;2024-01-30T06:42:14;10.30;;;9.30;;
8478;SDS011;4276;49.354;6.804;2024-01-30T06:44:41;12.18;;;9.68;;
8478;SDS011;4276;49.354;6.804;2024-01-30T06:47:07;10.07;;;9.07;;
8478;SDS011;4276;49.354;6.804;2024-01-30T06:49:34;10.52;;;9.40;;
8478;SDS011;4276;49.354;6.804;2024-01-30T06:52:01;12.37;;;11.07;;
8478;SDS011;4276;49.354;6.804;2024-01-30T06:54:27;11.10;;;9.77;;
8478;SDS011;4276;49.354;6.804;2024-01-30T06:56:54;11.47;;;9.83;;
8478;SDS011;4276;49.354;6.804;2024-01-30T06:59:20;9.55;;;8.70;;
8478;SDS011;4276;49.354;6.804;2024-01-30T07:01:47;9.98;;;8.98;;
8478;SDS011;4276;49.354;6.804;2024-01-30T07:04:14;8.75;;;7.95;;
8478;SDS011;4276;49.354;6.804;2024-01-30T07:06:41;9.70;;;8.90;;
8478;SDS011;4276;49.354;6.804;2024-01-30T07:09:08;10.25;;;9.35;;
8478;SDS011;4276;49.354;6.804;2024-01-30T07:11:37;10.93;;;9.95;;
8478;SDS011;4276;49.354;6.804;2024-01-30T07:14:04;11.70;;;10.60;;
8478;SDS011;4276;49.354;6.804;2024-01-30T07:16:30;13.95;;;11.20;;
8478;SDS011;4276;49.354;6.804;2024-01-30T07:18:57;16.23;;;12.48;;
8478;SDS011;4276;49.354;6.804;2024-01-30T07:21:24;15.40;;;11.97;;
8478;SDS011;4276;49.354;6.804;2024-01-30T07:23:54;13.23;;;11.75;;
8478;SDS011;4276;49.354;6.804;2024-01-30T07:26:21;14.67;;;12.53;;
8478;SDS011;4276;49.354;6.804;2024-01-30T07:28:48;13.77;;;12.32;;
8478;SDS011;4276;49.354;6.804;2024-01-30T07:31:16;14.68;;;13.13;;
8478;SDS011;4276;49.354;6.804;2024-01-30T07:33:43;15.05;;;12.32;;
8478;SDS011;4276;49.354;6.804;2024-01-30T07:36:09;14.98;;;13.35;;
8478;SDS011;4276;49.354;6.804;2024-01-30T07:38:36;13.70;;;12.23;;
8478;SDS011;4276;49.354;6.804;2024-01-30T07:41:03;12.87;;;11.47;;
8478;SDS011;4276;49.354;6.804;2024-01-30T07:43:30;12.73;;;11.43;;
8478;SDS011;4276;49.354;6.804;2024-01-30T07:45:57;13.23;;;11.93;;
8478;SDS011;4276;49.354;6.804;2024-01-30T07:48:23;13.30;;;11.90;;
8478;SDS011;4276;49.354;6.804;2024-01-30T07:50:50;12.95;;;11.65;;
8478;SDS011;4276;49.354;6.804;2024-01-30T07:53:16;13.35;;;11.95;;
8478;SDS011;4276;49.354;6.804;2024-01-30T07:55:43;12.93;;;11.63;;
8478;SDS011;4276;49.354;6.804;2024-01-30T07:58:12;13.82;;;12.43;;
8478;SDS011;4276;49.354;6.804;2024-01-30T08:00:39;15.63;;;13.82;;
8478;SDS011;4276;49.354;6.804;2024-01-30T08:03:06;23.10;;;19.38;;
8478;SDS011;4276;49.354;6.804;2024-01-30T08:05:32;22.88;;;19.48;;
8478;SDS011;4276;49.354;6.804;2024-01-30T08:07:59;22.98;;;20.55;;
8478;SDS011;4276;49.354;6.804;2024-01-30T08:10:26;22.30;;;19.90;;
8478;SDS011;4276;49.354;6.804;2024-01-30T08:12:52;19.67;;;17.60;;
8478;SDS011;4276;49.354;6.804;2024-01-30T08:15:19;16.98;;;15.18;;
8478;SDS011;4276;49.354;6.804;2024-01-30T08:17:45;16.50;;;14.63;;
8478;SDS011;4276;49.354;6.804;2024-01-30T08:20:12;16.08;;;14.52;;
8478;SDS011;4276;49.354;6.804;2024-01-30T08:22:40;14.75;;;13.15;;
8478;SDS011;4276;49.354;6.804;2024-01-30T08:25:07;15.60;;;14.00;;
8478;SDS011;4276;49.354;6.804;2024-01-30T08:27:34;16.25;;;13.95;;
8478;SDS011;4276;49.354;6.804;2024-01-30T08:30:02;16.45;;;14.48;;
8478;SDS011;4276;49.354;6.804;2024-01-30T08:32:29;14.52;;;13.02;;
8478;SDS011;4276;49.354;6.804;2024-01-30T08:34:56;15.55;;;14.00;;
8478;SDS011;4276;49.354;6.804;2024-01-30T08:37:23;13.73;;;12.38;;
8478;SDS011;4276;49.354;6.804;2024-01-30T08:39:50;13.90;;;12.50;;
8478;SDS011;4276;49.354;6.804;2024-01-30T08:42:17;14.65;;;13.18;;
8478;SDS011;4276;49.354;6.804;2024-01-30T08:44:49;14.52;;;12.88;;
8478;SDS011;4276;49.354;6.804;2024-01-30T08:47:17;15.77;;;14.23;;
8478;SDS011;4276;49.354;6.804;2024-01-30T08:49:44;14.95;;;13.60;;
8478;SDS011;4276;49.354;6.804;2024-01-30T08:52:11;13.68;;;12.27;;
8478;SDS011;4276;49.354;6.804;2024-01-30T08:54:38;16.48;;;14.82;;
8478;SDS011;4276;49.354;6.804;2024-01-30T08:57:05;14.80;;;13.43;;
8478;SDS011;4276;49.354;6.804;2024-01-30T08:59:31;15.75;;;14.27;;
8478;SDS011;4276;49.354;6.804;2024-01-30T09:01:58;16.15;;;14.68;;
8478;SDS011;4276;49.354;6.804;2024-01-30T09:04:37;16.25;;;14.55;;
8478;SDS011;4276;49.354;6.804;2024-01-30T09:07:04;18.45;;;16.63;;
8478;SDS011;4276;49.354;6.804;2024-01-30T09:09:35;21.23;;;19.13;;
8478;SDS011;4276;49.354;6.804;2024-01-30T09:12:03;23.17;;;20.80;;
8478;SDS011;4276;49.354;6.804;2024-01-30T09:14:33;27.80;;;24.92;;
8478;SDS011;4276;49.354;6.804;2024-01-30T09:16:59;28.02;;;25.33;;
8478;SDS011;4276;49.354;6.804;2024-01-30T09:19:26;27.65;;;24.83;;
8478;SDS011;4276;49.354;6.804;2024-01-30T09:21:53;25.38;;;22.92;;
8478;SDS011;4276;49.354;6.804;2024-01-30T09:24:19;23.23;;;20.90;;
8478;SDS011;4276;49.354;6.804;2024-01-30T09:26:46;23.40;;;21.02;;
8478;SDS011;4276;49.354;6.804;2024-01-30T09:29:12;24.83;;;22.25;;
8478;SDS011;4276;49.354;6.804;2024-01-30T09:31:39;24.40;;;21.95;;
8478;SDS011;4276;49.354;6.804;2024-01-30T09:34:05;24.45;;;21.83;;
8478;SDS011;4276;49.354;6.804;2024-01-30T09:36:32;30.85;;;27.75;;
8478;SDS011;4276;49.354;6.804;2024-01-30T09:38:59;24.05;;;21.63;;
8478;SDS011;4276;49.354;6.804;2024-01-30T09:41:26;30.70;;;27.35;;
8478;SDS011;4276;49.354;6.804;2024-01-30T09:43:54;27.08;;;24.23;;
8478;SDS011;4276;49.354;6.804;2024-01-30T09:46:20;25.10;;;22.50;;
8478;SDS011;4276;49.354;6.804;2024-01-30T09:48:48;25.67;;;23.08;;
8478;SDS011;4276;49.354;6.804;2024-01-30T09:51:15;24.45;;;22.08;;
8478;SDS011;4276;49.354;6.804;2024-01-30T09:53:42;24.08;;;21.67;;
8478;SDS011;4276;49.354;6.804;2024-01-30T09:56:12;24.50;;;22.13;;
8478;SDS011;4276;49.354;6.804;2024-01-30T09:58:38;24.77;;;22.27;;
8478;SDS011;4276;49.354;6.804;2024-01-30T10:01:06;23.75;;;21.45;;
8478;SDS011;4276;49.354;6.804;2024-01-30T10:03:33;22.33;;;19.98;;
8478;SDS011;4276;49.354;6.804;2024-01-30T10:06:00;21.80;;;19.65;;
8478;SDS011;4276;49.354;6.804;2024-01-30T10:08:27;21.10;;;18.90;;
8478;SDS011;4276;49.354;6.804;2024-01-30T10:10:56;21.00;;;19.13;;
8478;SDS011;4276;49.354;6.804;2024-01-30T10:13:25;20.13;;;18.23;;
8478;SDS011;4276;49.354;6.804;2024-01-30T10:15:52;19.80;;;18.00;;
8478;SDS011;4276;49.354;6.804;2024-01-30T10:18:19;22.42;;;20.23;;
8478;SDS011;4276;49.354;6.804;2024-01-30T10:20:46;22.65;;;20.55;;
8478;SDS011;4276;49.354;6.804;2024-01-30T10:23:12;22.58;;;20.27;;
8478;SDS011;4276;49.354;6.804;2024-01-30T10:25:39;22.17;;;20.08;;
8478;SDS011;4276;49.354;6.804;2024-01-30T10:28:06;19.20;;;17.40;;
8478;SDS011;4276;49.354;6.804;2024-01-30T10:30:32;17.52;;;16.00;;
8478;SDS011;4276;49.354;6.804;2024-01-30T10:32:59;21.08;;;19.27;;
8478;SDS011;4276;49.354;6.804;2024-01-30T10:35:26;21.88;;;19.75;;
8478;SDS011;4276;49.354;6.804;2024-01-30T10:37:52;20.17;;;18.23;;
8478;SDS011;4276;49.354;6.804;2024-01-30T10:40:23;17.83;;;16.10;;
8478;SDS011;4276;49.354;6.804;2024-01-30T10:42:54;18.17;;;16.58;;
8478;SDS011;4276;49.354;6.804;2024-01-30T10:45:22;15.30;;;13.82;;
8478;SDS011;4276;49.354;6.804;2024-01-30T10:47:49;13.07;;;11.77;;
8478;SDS011;4276;49.354;6.804;2024-01-30T10:50:16;14.73;;;13.32;;
8478;SDS011;4276;49.354;6.804;2024-01-30T10:52:44;14.93;;;13.60;;
8478;SDS011;4276;49.354;6.804;2024-01-30T10:55:11;12.82;;;11.55;;
8478;SDS011;4276;49.354;6.804;2024-01-30T10:57:38;13.70;;;12.50;;
8478;SDS011;4276;49.354;6.804;2024-01-30T11:00:06;13.20;;;11.93;;
8478;SDS011;4276;49.354;6.804;2024-01-30T11:02:41;12.15;;;10.98;;
8478;SDS011;4276;49.354;6.804;2024-01-30T11:05:10;11.80;;;10.68;;
8478;SDS011;4276;49.354;6.804;2024-01-30T11:07:38;12.45;;;11.27;;
8478;SDS011;4276;49.354;6.804;2024-01-30T11:10:05;11.35;;;10.30;;
8478;SDS011;4276;49.354;6.804;2024-01-30T11:12:39;11.90;;;10.85;;
8478;SDS011;4276;49.354;6.804;2024-01-30T11:15:14;11.23;;;10.10;;
8478;SDS011;4276;49.354;6.804;2024-01-30T11:17:47;12.00;;;10.55;;
8478;SDS011;4276;49.354;6.804;2024-01-30T11:22:55;11.85;;;10.65;;
8478;SDS011;4276;49.354;6.804;2024-01-30T11:25:22;11.45;;;10.43;;
8478;SDS011;4276;49.354;6.804;2024-01-30T11:27:50;11.35;;;10.25;;
8478;SDS011;4276;49.354;6.804;2024-01-30T11:30:31;11.82;;;10.73;;
8478;SDS011;4276;49.354;6.804;2024-01-30T11:33:05;10.57;;;9.48;;
8478;SDS011;4276;49.354;6.804;2024-01-30T11:35:40;10.95;;;9.93;;
8478;SDS011;4276;49.354;6.804;2024-01-30T11:38:09;11.02;;;10.02;;
8478;SDS011;4276;49.354;6.804;2024-01-30T11:40:37;10.85;;;9.80;;
8478;SDS011;4276;49.354;6.804;2024-01-30T11:43:05;10.38;;;9.38;;
8478;SDS011;4276;49.354;6.804;2024-01-30T11:45:33;10.82;;;9.38;;
8478;SDS011;4276;49.354;6.804;2024-01-30T11:48:00;10.77;;;9.75;;
8478;SDS011;4276;49.354;6.804;2024-01-30T11:50:32;10.52;;;9.52;;
8478;SDS011;4276;49.354;6.804;2024-01-30T11:52:59;11.50;;;10.40;;
8478;SDS011;4276;49.354;6.804;2024-01-30T11:55:26;12.32;;;10.77;;
8478;SDS011;4276;49.354;6.804;2024-01-30T11:57:59;11.93;;;10.73;;
8478;SDS011;4276;49.354;6.804;2024-01-30T12:00:26;10.60;;;9.70;;
8478;SDS011;4276;49.354;6.804;2024-01-30T12:02:53;11.45;;;10.35;;
8478;SDS011;4276;49.354;6.804;2024-01-30T12:05:25;11.20;;;10.10;;
8478;SDS011;4276;49.354;6.804;2024-01-30T12:07:51;11.98;;;10.52;;
8478;SDS011;4276;49.354;6.804;2024-01-30T12:10:18;10.90;;;9.90;;
8478;SDS011;4276;49.354;6.804;2024-01-30T12:12:46;12.00;;;10.85;;
8478;SDS011;4276;49.354;6.804;2024-01-30T12:15:13;12.05;;;10.93;;
8478;SDS011;4276;49.354;6.804;2024-01-30T12:17:40;11.48;;;10.32;;
8478;SDS011;4276;49.354;6.804;2024-01-30T12:20:10;11.40;;;10.30;;
8478;SDS011;4276;49.354;6.804;2024-01-30T12:22:43;11.57;;;10.48;;
8478;SDS011;4276;49.354;6.804;2024-01-30T12:25:16;10.73;;;9.75;;
8478;SDS011;4276;49.354;6.804;2024-01-30T12:27:45;11.52;;;10.43;;
8478;SDS011;4276;49.354;6.804;2024-01-30T12:30:13;10.80;;;9.80;;
8478;SDS011;4276;49.354;6.804;2024-01-30T12:32:42;12.43;;;11.23;;
8478;SDS011;4276;49.354;6.804;2024-01-30T12:35:16;10.63;;;9.73;;
8478;SDS011;4276;49.354;6.804;2024-01-30T12:37:44;11.63;;;10.55;;
8478;SDS011;4276;49.354;6.804;2024-01-30T12:40:11;11.02;;;10.02;;
8478;SDS011;4276;49.354;6.804;2024-01-30T12:42:41;11.75;;;10.65;;
8478;SDS011;4276;49.354;6.804;2024-01-30T12:45:09;12.23;;;11.13;;
8478;SDS011;4276;49.354;6.804;2024-01-30T12:47:35;11.90;;;10.80;;
8478;SDS011;4276;49.354;6.804;2024-01-30T12:50:02;12.40;;;11.30;;
8478;SDS011;4276;49.354;6.804;2024-01-30T12:52:29;12.65;;;11.52;;
8478;SDS011;4276;49.354;6.804;2024-01-30T12:54:56;13.45;;;12.15;;
8478;SDS011;4276;49.354;6.804;2024-01-30T12:57:22;14.30;;;13.00;;
8478;SDS011;4276;49.354;6.804;2024-01-30T12:59:49;13.90;;;12.55;;
8478;SDS011;4276;49.354;6.804;2024-01-30T13:02:15;12.35;;;11.25;;
8478;SDS011;4276;49.354;6.804;2024-01-30T13:04:42;12.23;;;11.02;;
8478;SDS011;4276;49.354;6.804;2024-01-30T13:07:12;13.32;;;11.50;;
8478;SDS011;4276;49.354;6.804;2024-01-30T13:09:38;12.35;;;11.15;;
8478;SDS011;4276;49.354;6.804;2024-01-30T13:12:05;11.80;;;10.70;;
8478;SDS011;4276;49.354;6.804;2024-01-30T13:14:31;11.07;;;10.05;;
8478;SDS011;4276;49.354;6.804;2024-01-30T13:16:58;11.38;;;10.25;;
8478;SDS011;4276;49.354;6.804;2024-01-30T13:19:25;11.15;;;10.07;;
8478;SDS011;4276;49.354;6.804;2024-01-30T13:21:51;10.98;;;9.88;;
8478;SDS011;4276;49.354;6.804;2024-01-30T13:24:18;9.93;;;9.13;;
8478;SDS011;4276;49.354;6.804;2024-01-30T13:26:47;10.25;;;9.20;;
8478;SDS011;4276;49.354;6.804;2024-01-30T13:29:15;10.15;;;9.25;;
8478;SDS011;4276;49.354;6.804;2024-01-30T13:31:41;10.93;;;9.85;;
8478;SDS011;4276;49.354;6.804;2024-01-30T13:34:10;10.00;;;8.90;;
8478;SDS011;4276;49.354;6.804;2024-01-30T13:36:37;9.90;;;9.10;;
8478;SDS011;4276;49.354;6.804;2024-01-30T13:39:04;9.63;;;8.63;;
8478;SDS011;4276;49.354;6.804;2024-01-30T13:41:34;11.82;;;9.57;;
8478;SDS011;4276;49.354;6.804;2024-01-30T13:44:01;9.80;;;8.93;;
8478;SDS011;4276;49.354;6.804;2024-01-30T13:46:29;9.55;;;8.75;;
8478;SDS011;4276;49.354;6.804;2024-01-30T13:48:56;10.02;;;9.13;;
8478;SDS011;4276;49.354;6.804;2024-01-30T13:51:23;11.02;;;9.85;;
8478;SDS011;4276;49.354;6.804;2024-01-30T13:53:49;11.68;;;10.57;;
8478;SDS011;4276;49.354;6.804;2024-01-30T13:56:16;11.23;;;10.02;;
8478;SDS011;4276;49.354;6.804;2024-01-30T13:58:43;10.52;;;9.57;;
8478;SDS011;4276;49.354;6.804;2024-01-30T14:01:09;10.13;;;9.13;;
8478;SDS011;4276;49.354;6.804;2024-01-30T14:03:36;9.82;;;9.00;;
8478;SDS011;4276;49.354;6.804;2024-01-30T14:06:03;10.70;;;9.60;;
8478;SDS011;4276;49.354;6.804;2024-01-30T14:08:29;10.90;;;9.13;;
8478;SDS011;4276;49.354;6.804;2024-01-30T14:10:56;11.32;;;10.30;;
8478;SDS011;4276;49.354;6.804;2024-01-30T14:13:23;11.00;;;9.80;;
8478;SDS011;4276;49.354;6.804;2024-01-30T14:15:51;10.68;;;9.77;;
8478;SDS011;4276;49.354;6.804;2024-01-30T14:18:18;10.40;;;9.50;;
8478;SDS011;4276;49.354;6.804;2024-01-30T14:20:45;9.73;;;8.85;;
8478;SDS011;4276;49.354;6.804;2024-01-30T14:23:11;9.95;;;9.13;;
8478;SDS011;4276;49.354;6.804;2024-01-30T14:25:38;9.88;;;8.98;;
8478;SDS011;4276;49.354;6.804;2024-01-30T14:28:05;10.15;;;9.15;;
8478;SDS011;4276;49.354;6.804;2024-01-30T14:30:33;10.32;;;9.32;;
8478;SDS011;4276;49.354;6.804;2024-01-30T14:32:59;8.98;;;8.07;;
8478;SDS011;4276;49.354;6.804;2024-01-30T14:35:26;9.20;;;8.30;;
8478;SDS011;4276;49.354;6.804;2024-01-30T14:37:53;9.73;;;8.75;;
8478;SDS011;4276;49.354;6.804;2024-01-30T14:40:20;8.05;;;7.25;;
8478;SDS011;4276;49.354;6.804;2024-01-30T14:42:47;7.15;;;6.55;;
8478;SDS011;4276;49.354;6.804;2024-01-30T14:45:14;11.23;;;6.97;;
8478;SDS011;4276;49.354;6.804;2024-01-30T14:47:42;8.25;;;7.10;;
8478;SDS011;4276;49.354;6.804;2024-01-30T14:50:08;7.63;;;6.82;;
8478;SDS011;4276;49.354;6.804;2024-01-30T14:52:35;8.02;;;7.40;;
8478;SDS011;4276;49.354;6.804;2024-01-30T14:55:03;7.90;;;7.20;;
8478;SDS011;4276;49.354;6.804;2024-01-30T14:57:29;7.85;;;7.15;;
8478;SDS011;4276;49.354;6.804;2024-01-30T14:59:56;8.00;;;7.32;;
8478;SDS011;4276;49.354;6.804;2024-01-30T15:02:22;8.15;;;7.43;;